sensor_id;sensor_type;location;lat;lon;timestamp;temperature;humidity
38514;DHT22;24282;48.400;10.808;2023-04-24T00:00:04;11.70;84.80
38514;DHT22;24282;48.400;10.808;2023-04-24T00:02:35;11.70;85.00
38514;DHT22;24282;48.400;10.808;2023-04-24T00:05:07;11.70;85.10
38514;DHT22;24282;48.400;10.808;2023-04-24T00:07:33;11.70;85.10
38514;DHT22;24282;48.400;10.808;2023-04-24T00:10:00;11.70;85.00
38514;DHT22;24282;48.400;10.808;2023-04-24T00:12:26;11.70;85.10
38514;DHT22;24282;48.400;10.808;2023-04-24T00:14:52;11.70;84.70
38514;DHT22;24282;48.400;10.808;2023-04-24T00:17:18;11.70;84.10
38514;DHT22;24282;48.400;10.808;2023-04-24T00:19:46;11.70;84.30
38514;DHT22;24282;48.400;10.808;2023-04-24T00:22:25;11.60;84.40
38514;DHT22;24282;48.400;10.808;2023-04-24T00:24:51;11.60;84.70
38514;DHT22;24282;48.400;10.808;2023-04-24T00:27:16;11.60;84.50
38514;DHT22;24282;48.400;10.808;2023-04-24T00:29:42;11.60;84.60
38514;DHT22;24282;48.400;10.808;2023-04-24T00:32:08;11.60;84.40
38514;DHT22;24282;48.400;10.808;2023-04-24T00:34:34;11.60;84.10
38514;DHT22;24282;48.400;10.808;2023-04-24T00:36:59;11.60;84.10
38514;DHT22;24282;48.400;10.808;2023-04-24T00:39:25;11.50;83.90
38514;DHT22;24282;48.400;10.808;2023-04-24T00:41:51;11.50;84.10
38514;DHT22;24282;48.400;10.808;2023-04-24T00:44:18;11.50;84.30
38514;DHT22;24282;48.400;10.808;2023-04-24T00:46:43;11.50;83.90
38514;DHT22;24282;48.400;10.808;2023-04-24T00:49:09;11.50;83.90
38514;DHT22;24282;48.400;10.808;2023-04-24T00:51:36;11.50;83.80
38514;DHT22;24282;48.400;10.808;2023-04-24T00:54:02;11.50;83.40
38514;DHT22;24282;48.400;10.808;2023-04-24T00:56:28;11.40;83.40
38514;DHT22;24282;48.400;10.808;2023-04-24T00:58:54;11.40;83.80
38514;DHT22;24282;48.400;10.808;2023-04-24T01:01:21;11.40;84.00
38514;DHT22;24282;48.400;10.808;2023-04-24T01:03:49;11.40;84.00
38514;DHT22;24282;48.400;10.808;2023-04-24T01:06:16;11.30;84.20
38514;DHT22;24282;48.400;10.808;2023-04-24T01:08:43;11.30;84.00
38514;DHT22;24282;48.400;10.808;2023-04-24T01:11:10;11.40;84.10
38514;DHT22;24282;48.400;10.808;2023-04-24T01:13:37;11.30;84.00
38514;DHT22;24282;48.400;10.808;2023-04-24T01:16:03;11.30;83.90
38514;DHT22;24282;48.400;10.808;2023-04-24T01:18:29;11.30;83.40
38514;DHT22;24282;48.400;10.808;2023-04-24T01:20:58;11.30;83.70
38514;DHT22;24282;48.400;10.808;2023-04-24T01:23:25;11.30;83.70
38514;DHT22;24282;48.400;10.808;2023-04-24T01:25:51;11.30;84.00
38514;DHT22;24282;48.400;10.808;2023-04-24T01:28:18;11.30;83.90
38514;DHT22;24282;48.400;10.808;2023-04-24T01:30:43;11.20;84.20
38514;DHT22;24282;48.400;10.808;2023-04-24T01:33:09;11.20;84.10
38514;DHT22;24282;48.400;10.808;2023-04-24T01:35:36;11.20;84.20
38514;DHT22;24282;48.400;10.808;2023-04-24T01:38:03;11.20;84.40
38514;DHT22;24282;48.400;10.808;2023-04-24T01:40:29;11.20;84.50
38514;DHT22;24282;48.400;10.808;2023-04-24T01:42:58;11.20;84.60
38514;DHT22;24282;48.400;10.808;2023-04-24T01:45:24;11.20;84.50
38514;DHT22;24282;48.400;10.808;2023-04-24T01:47:50;11.20;84.50
38514;DHT22;24282;48.400;10.808;2023-04-24T01:50:17;11.20;84.50
38514;DHT22;24282;48.400;10.808;2023-04-24T01:52:43;11.10;84.80
38514;DHT22;24282;48.400;10.808;2023-04-24T01:55:10;11.10;85.10
38514;DHT22;24282;48.400;10.808;2023-04-24T01:57:35;11.10;85.20
38514;DHT22;24282;48.400;10.808;2023-04-24T02:00:02;11.10;85.40
38514;DHT22;24282;48.400;10.808;2023-04-24T02:02:41;11.10;85.40
38514;DHT22;24282;48.400;10.808;2023-04-24T02:05:08;11.10;85.30
38514;DHT22;24282;48.400;10.808;2023-04-24T02:07:35;11.10;85.20
38514;DHT22;24282;48.400;10.808;2023-04-24T02:10:02;11.10;85.00
38514;DHT22;24282;48.400;10.808;2023-04-24T02:12:29;11.10;84.90
38514;DHT22;24282;48.400;10.808;2023-04-24T02:14:55;11.10;84.90
38514;DHT22;24282;48.400;10.808;2023-04-24T02:17:21;11.10;84.80
38514;DHT22;24282;48.400;10.808;2023-04-24T02:19:47;11.10;84.80
38514;DHT22;24282;48.400;10.808;2023-04-24T02:22:12;11.10;84.90
38514;DHT22;24282;48.400;10.808;2023-04-24T02:24:39;11.10;85.00
38514;DHT22;24282;48.400;10.808;2023-04-24T02:27:06;11.00;85.00
38514;DHT22;24282;48.400;10.808;2023-04-24T02:29:32;11.00;84.70
38514;DHT22;24282;48.400;10.808;2023-04-24T02:31:58;11.10;85.00
38514;DHT22;24282;48.400;10.808;2023-04-24T02:34:23;11.10;84.90
38514;DHT22;24282;48.400;10.808;2023-04-24T02:36:49;11.00;84.70
38514;DHT22;24282;48.400;10.808;2023-04-24T02:39:15;11.00;84.80
38514;DHT22;24282;48.400;10.808;2023-04-24T02:41:44;11.00;85.00
38514;DHT22;24282;48.400;10.808;2023-04-24T02:44:10;11.00;85.00
38514;DHT22;24282;48.400;10.808;2023-04-24T02:46:35;11.00;84.90
38514;DHT22;24282;48.400;10.808;2023-04-24T02:49:01;11.00;84.90
38514;DHT22;24282;48.400;10.808;2023-04-24T02:51:28;11.00;84.90
38514;DHT22;24282;48.400;10.808;2023-04-24T02:53:54;11.00;84.80
38514;DHT22;24282;48.400;10.808;2023-04-24T02:56:20;11.00;84.60
38514;DHT22;24282;48.400;10.808;2023-04-24T02:58:45;11.00;84.50
38514;DHT22;24282;48.400;10.808;2023-04-24T03:01:11;11.00;84.30
38514;DHT22;24282;48.400;10.808;2023-04-24T03:03:38;11.00;84.00
38514;DHT22;24282;48.400;10.808;2023-04-24T03:06:04;11.00;84.30
38514;DHT22;24282;48.400;10.808;2023-04-24T03:08:33;11.00;84.70
38514;DHT22;24282;48.400;10.808;2023-04-24T03:10:59;10.90;84.80
38514;DHT22;24282;48.400;10.808;2023-04-24T03:13:25;10.90;84.80
38514;DHT22;24282;48.400;10.808;2023-04-24T03:15:51;10.90;84.80
38514;DHT22;24282;48.400;10.808;2023-04-24T03:18:17;10.90;84.60
38514;DHT22;24282;48.400;10.808;2023-04-24T03:20:45;10.90;84.60
38514;DHT22;24282;48.400;10.808;2023-04-24T03:23:13;10.90;84.60
38514;DHT22;24282;48.400;10.808;2023-04-24T03:25:39;10.90;84.80
38514;DHT22;24282;48.400;10.808;2023-04-24T03:28:05;10.90;85.20
38514;DHT22;24282;48.400;10.808;2023-04-24T03:30:39;10.80;85.40
38514;DHT22;24282;48.400;10.808;2023-04-24T03:33:05;10.90;85.40
38514;DHT22;24282;48.400;10.808;2023-04-24T03:35:35;10.90;85.20
38514;DHT22;24282;48.400;10.808;2023-04-24T03:38:04;10.80;85.10
38514;DHT22;24282;48.400;10.808;2023-04-24T03:40:50;10.80;85.40
38514;DHT22;24282;48.400;10.808;2023-04-24T03:43:36;10.80;85.40
38514;DHT22;24282;48.400;10.808;2023-04-24T03:46:02;10.80;85.30
38514;DHT22;24282;48.400;10.808;2023-04-24T03:48:31;10.80;85.50
38514;DHT22;24282;48.400;10.808;2023-04-24T03:50:56;10.80;85.80
38514;DHT22;24282;48.400;10.808;2023-04-24T03:53:23;10.70;85.80
38514;DHT22;24282;48.400;10.808;2023-04-24T03:55:49;10.70;85.70
38514;DHT22;24282;48.400;10.808;2023-04-24T03:58:15;10.70;85.70
38514;DHT22;24282;48.400;10.808;2023-04-24T04:00:42;10.70;85.70
38514;DHT22;24282;48.400;10.808;2023-04-24T04:03:32;10.70;85.90
38514;DHT22;24282;48.400;10.808;2023-04-24T04:05:58;10.70;85.70
38514;DHT22;24282;48.400;10.808;2023-04-24T04:08:25;10.70;85.30
38514;DHT22;24282;48.400;10.808;2023-04-24T04:10:52;10.70;85.10
38514;DHT22;24282;48.400;10.808;2023-04-24T04:13:17;10.70;84.80
38514;DHT22;24282;48.400;10.808;2023-04-24T04:15:43;10.70;84.90
38514;DHT22;24282;48.400;10.808;2023-04-24T04:18:09;10.70;85.00
38514;DHT22;24282;48.400;10.808;2023-04-24T04:20:35;10.70;85.00
38514;DHT22;24282;48.400;10.808;2023-04-24T04:23:01;10.70;85.00
38514;DHT22;24282;48.400;10.808;2023-04-24T04:25:39;10.80;84.60
38514;DHT22;24282;48.400;10.808;2023-04-24T04:28:06;10.70;84.70
38514;DHT22;24282;48.400;10.808;2023-04-24T04:30:31;10.70;84.60
38514;DHT22;24282;48.400;10.808;2023-04-24T04:33:01;10.70;84.50
38514;DHT22;24282;48.400;10.808;2023-04-24T04:35:28;10.70;84.40
38514;DHT22;24282;48.400;10.808;2023-04-24T04:37:54;10.70;84.30
38514;DHT22;24282;48.400;10.808;2023-04-24T04:40:45;10.70;84.40
38514;DHT22;24282;48.400;10.808;2023-04-24T04:43:12;10.70;84.30
38514;DHT22;24282;48.400;10.808;2023-04-24T04:45:44;10.70;84.20
38514;DHT22;24282;48.400;10.808;2023-04-24T04:48:28;10.70;84.30
38514;DHT22;24282;48.400;10.808;2023-04-24T04:50:59;10.70;84.40
38514;DHT22;24282;48.400;10.808;2023-04-24T04:53:26;10.70;84.50
38514;DHT22;24282;48.400;10.808;2023-04-24T04:55:52;10.70;84.40
38514;DHT22;24282;48.400;10.808;2023-04-24T04:58:19;10.70;84.20
38514;DHT22;24282;48.400;10.808;2023-04-24T05:00:48;10.70;84.20
38514;DHT22;24282;48.400;10.808;2023-04-24T05:03:43;10.60;84.20
38514;DHT22;24282;48.400;10.808;2023-04-24T05:06:12;10.60;84.40
38514;DHT22;24282;48.400;10.808;2023-04-24T05:08:39;10.70;84.50
38514;DHT22;24282;48.400;10.808;2023-04-24T05:11:08;10.70;84.50
38514;DHT22;24282;48.400;10.808;2023-04-24T05:13:34;10.70;84.40
38514;DHT22;24282;48.400;10.808;2023-04-24T05:16:01;10.70;84.30
38514;DHT22;24282;48.400;10.808;2023-04-24T05:18:29;10.70;84.30
38514;DHT22;24282;48.400;10.808;2023-04-24T05:20:56;10.80;83.90
38514;DHT22;24282;48.400;10.808;2023-04-24T05:23:22;10.80;84.10
38514;DHT22;24282;48.400;10.808;2023-04-24T05:25:52;10.80;84.10
38514;DHT22;24282;48.400;10.808;2023-04-24T05:28:19;10.80;83.70
38514;DHT22;24282;48.400;10.808;2023-04-24T05:30:53;10.70;83.70
38514;DHT22;24282;48.400;10.808;2023-04-24T05:33:20;10.70;84.00
38514;DHT22;24282;48.400;10.808;2023-04-24T05:35:45;10.80;83.90
38514;DHT22;24282;48.400;10.808;2023-04-24T05:38:12;10.70;83.70
38514;DHT22;24282;48.400;10.808;2023-04-24T05:40:39;10.80;83.80
38514;DHT22;24282;48.400;10.808;2023-04-24T05:43:05;10.70;83.70
38514;DHT22;24282;48.400;10.808;2023-04-24T05:45:31;10.80;83.60
38514;DHT22;24282;48.400;10.808;2023-04-24T05:47:57;10.70;83.70
38514;DHT22;24282;48.400;10.808;2023-04-24T05:50:23;10.70;83.50
38514;DHT22;24282;48.400;10.808;2023-04-24T05:52:49;10.70;83.50
38514;DHT22;24282;48.400;10.808;2023-04-24T05:55:24;10.70;83.60
38514;DHT22;24282;48.400;10.808;2023-04-24T05:57:51;10.70;83.70
38514;DHT22;24282;48.400;10.808;2023-04-24T06:00:17;10.70;83.50
38514;DHT22;24282;48.400;10.808;2023-04-24T06:02:50;10.70;83.40
38514;DHT22;24282;48.400;10.808;2023-04-24T06:05:18;10.70;83.40
38514;DHT22;24282;48.400;10.808;2023-04-24T06:07:44;10.80;83.10
38514;DHT22;24282;48.400;10.808;2023-04-24T06:10:10;10.80;82.90
38514;DHT22;24282;48.400;10.808;2023-04-24T06:12:41;10.80;83.20
38514;DHT22;24282;48.400;10.808;2023-04-24T06:15:12;10.80;83.20
38514;DHT22;24282;48.400;10.808;2023-04-24T06:17:51;10.80;82.90
38514;DHT22;24282;48.400;10.808;2023-04-24T06:20:18;10.90;83.00
38514;DHT22;24282;48.400;10.808;2023-04-24T06:22:44;10.90;82.80
38514;DHT22;24282;48.400;10.808;2023-04-24T06:25:10;10.90;82.80
38514;DHT22;24282;48.400;10.808;2023-04-24T06:27:36;10.90;82.60
38514;DHT22;24282;48.400;10.808;2023-04-24T06:30:02;10.90;82.60
38514;DHT22;24282;48.400;10.808;2023-04-24T06:32:28;10.90;82.80
38514;DHT22;24282;48.400;10.808;2023-04-24T06:34:53;11.00;82.70
38514;DHT22;24282;48.400;10.808;2023-04-24T06:37:22;11.00;81.80
38514;DHT22;24282;48.400;10.808;2023-04-24T06:39:48;11.00;82.10
38514;DHT22;24282;48.400;10.808;2023-04-24T06:42:14;11.00;82.20
38514;DHT22;24282;48.400;10.808;2023-04-24T06:44:42;11.00;82.20
38514;DHT22;24282;48.400;10.808;2023-04-24T06:47:11;11.00;81.50
38514;DHT22;24282;48.400;10.808;2023-04-24T06:49:39;11.10;81.70
38514;DHT22;24282;48.400;10.808;2023-04-24T06:52:05;11.00;81.50
38514;DHT22;24282;48.400;10.808;2023-04-24T06:54:32;11.10;81.80
38514;DHT22;24282;48.400;10.808;2023-04-24T06:56:58;11.00;81.60
38514;DHT22;24282;48.400;10.808;2023-04-24T06:59:24;11.00;81.20
38514;DHT22;24282;48.400;10.808;2023-04-24T07:01:50;11.00;81.00
38514;DHT22;24282;48.400;10.808;2023-04-24T07:04:17;11.00;81.30
38514;DHT22;24282;48.400;10.808;2023-04-24T07:06:43;11.00;81.20
38514;DHT22;24282;48.400;10.808;2023-04-24T07:09:09;11.00;81.00
38514;DHT22;24282;48.400;10.808;2023-04-24T07:11:35;11.10;81.10
38514;DHT22;24282;48.400;10.808;2023-04-24T07:14:01;11.00;81.40
38514;DHT22;24282;48.400;10.808;2023-04-24T07:16:28;11.00;81.70
38514;DHT22;24282;48.400;10.808;2023-04-24T07:18:53;11.00;81.70
38514;DHT22;24282;48.400;10.808;2023-04-24T07:21:19;10.90;81.70
38514;DHT22;24282;48.400;10.808;2023-04-24T07:23:45;11.00;81.60
38514;DHT22;24282;48.400;10.808;2023-04-24T07:26:11;11.10;81.30
38514;DHT22;24282;48.400;10.808;2023-04-24T07:28:36;11.00;80.90
38514;DHT22;24282;48.400;10.808;2023-04-24T07:31:02;11.10;80.60
38514;DHT22;24282;48.400;10.808;2023-04-24T07:33:28;11.00;80.80
38514;DHT22;24282;48.400;10.808;2023-04-24T07:35:54;11.10;80.70
38514;DHT22;24282;48.400;10.808;2023-04-24T07:38:20;11.00;79.70
38514;DHT22;24282;48.400;10.808;2023-04-24T07:40:48;11.00;79.20
38514;DHT22;24282;48.400;10.808;2023-04-24T07:43:13;11.10;79.30
38514;DHT22;24282;48.400;10.808;2023-04-24T07:45:39;11.10;79.80
38514;DHT22;24282;48.400;10.808;2023-04-24T07:48:06;11.10;79.20
38514;DHT22;24282;48.400;10.808;2023-04-24T07:50:32;11.10;79.90
38514;DHT22;24282;48.400;10.808;2023-04-24T07:52:58;11.20;78.50
38514;DHT22;24282;48.400;10.808;2023-04-24T07:55:23;11.10;78.20
38514;DHT22;24282;48.400;10.808;2023-04-24T07:57:49;11.10;78.70
38514;DHT22;24282;48.400;10.808;2023-04-24T08:00:15;11.20;78.40
38514;DHT22;24282;48.400;10.808;2023-04-24T08:02:41;11.10;78.70
38514;DHT22;24282;48.400;10.808;2023-04-24T08:05:07;11.20;79.90
38514;DHT22;24282;48.400;10.808;2023-04-24T08:07:33;11.20;79.80
38514;DHT22;24282;48.400;10.808;2023-04-24T08:09:58;11.20;79.10
38514;DHT22;24282;48.400;10.808;2023-04-24T08:12:25;11.20;80.10
38514;DHT22;24282;48.400;10.808;2023-04-24T08:14:50;11.30;78.90
38514;DHT22;24282;48.400;10.808;2023-04-24T08:17:17;11.30;79.30
38514;DHT22;24282;48.400;10.808;2023-04-24T08:19:43;11.40;79.30
38514;DHT22;24282;48.400;10.808;2023-04-24T08:22:13;11.40;79.20
38514;DHT22;24282;48.400;10.808;2023-04-24T08:24:39;11.40;79.30
38514;DHT22;24282;48.400;10.808;2023-04-24T08:27:04;11.40;78.50
38514;DHT22;24282;48.400;10.808;2023-04-24T08:29:30;11.40;78.40
38514;DHT22;24282;48.400;10.808;2023-04-24T08:31:56;11.50;78.50
38514;DHT22;24282;48.400;10.808;2023-04-24T08:34:22;11.60;77.00
38514;DHT22;24282;48.400;10.808;2023-04-24T08:36:48;11.70;76.60
38514;DHT22;24282;48.400;10.808;2023-04-24T08:39:14;11.80;76.20
38514;DHT22;24282;48.400;10.808;2023-04-24T08:41:42;12.00;75.10
38514;DHT22;24282;48.400;10.808;2023-04-24T08:44:09;12.20;74.20
38514;DHT22;24282;48.400;10.808;2023-04-24T08:46:35;12.20;74.70
38514;DHT22;24282;48.400;10.808;2023-04-24T08:49:02;12.30;74.70
38514;DHT22;24282;48.400;10.808;2023-04-24T08:51:29;12.40;73.60
38514;DHT22;24282;48.400;10.808;2023-04-24T08:53:57;12.40;72.70
38514;DHT22;24282;48.400;10.808;2023-04-24T08:56:23;12.40;71.60
38514;DHT22;24282;48.400;10.808;2023-04-24T08:58:50;12.40;71.40
38514;DHT22;24282;48.400;10.808;2023-04-24T09:01:19;12.40;70.70
38514;DHT22;24282;48.400;10.808;2023-04-24T09:03:47;12.50;70.70
38514;DHT22;24282;48.400;10.808;2023-04-24T09:06:15;12.50;71.00
38514;DHT22;24282;48.400;10.808;2023-04-24T09:08:42;12.60;71.10
38514;DHT22;24282;48.400;10.808;2023-04-24T09:11:09;12.60;71.00
38514;DHT22;24282;48.400;10.808;2023-04-24T09:13:35;12.70;70.10
38514;DHT22;24282;48.400;10.808;2023-04-24T09:16:02;12.70;70.00
38514;DHT22;24282;48.400;10.808;2023-04-24T09:18:28;12.80;71.50
38514;DHT22;24282;48.400;10.808;2023-04-24T09:23:28;13.10;69.00
38514;DHT22;24282;48.400;10.808;2023-04-24T09:25:55;13.20;68.20
38514;DHT22;24282;48.400;10.808;2023-04-24T09:28:35;13.30;69.00
38514;DHT22;24282;48.400;10.808;2023-04-24T09:31:15;13.30;68.10
38514;DHT22;24282;48.400;10.808;2023-04-24T09:34:09;13.40;67.80
38514;DHT22;24282;48.400;10.808;2023-04-24T09:36:38;13.40;65.50
38514;DHT22;24282;48.400;10.808;2023-04-24T09:39:12;13.40;66.50
38514;DHT22;24282;48.400;10.808;2023-04-24T09:41:50;13.30;67.30
38514;DHT22;24282;48.400;10.808;2023-04-24T09:44:21;13.30;67.50
38514;DHT22;24282;48.400;10.808;2023-04-24T09:46:54;13.30;66.50
38514;DHT22;24282;48.400;10.808;2023-04-24T09:49:30;13.20;65.90
38514;DHT22;24282;48.400;10.808;2023-04-24T09:52:07;13.10;65.80
38514;DHT22;24282;48.400;10.808;2023-04-24T09:54:33;13.10;66.30
38514;DHT22;24282;48.400;10.808;2023-04-24T09:56:59;13.10;65.80
38514;DHT22;24282;48.400;10.808;2023-04-24T09:59:28;13.00;66.20
38514;DHT22;24282;48.400;10.808;2023-04-24T10:01:54;13.10;66.20
38514;DHT22;24282;48.400;10.808;2023-04-24T10:06:56;12.90;67.60
38514;DHT22;24282;48.400;10.808;2023-04-24T10:09:24;12.80;70.00
38514;DHT22;24282;48.400;10.808;2023-04-24T10:11:52;12.50;71.10
38514;DHT22;24282;48.400;10.808;2023-04-24T10:14:23;12.40;72.10
38514;DHT22;24282;48.400;10.808;2023-04-24T10:16:52;12.30;73.00
38514;DHT22;24282;48.400;10.808;2023-04-24T10:19:18;12.20;72.70
38514;DHT22;24282;48.400;10.808;2023-04-24T10:21:44;12.30;72.30
38514;DHT22;24282;48.400;10.808;2023-04-24T10:24:17;12.20;72.20
38514;DHT22;24282;48.400;10.808;2023-04-24T10:26:44;12.10;73.10
38514;DHT22;24282;48.400;10.808;2023-04-24T10:29:12;12.10;73.20
38514;DHT22;24282;48.400;10.808;2023-04-24T10:31:38;12.20;72.70
38514;DHT22;24282;48.400;10.808;2023-04-24T10:34:09;12.20;71.40
38514;DHT22;24282;48.400;10.808;2023-04-24T10:36:38;12.20;72.30
38514;DHT22;24282;48.400;10.808;2023-04-24T10:39:08;12.20;73.30
38514;DHT22;24282;48.400;10.808;2023-04-24T10:41:37;12.30;72.90
38514;DHT22;24282;48.400;10.808;2023-04-24T10:44:14;12.40;71.00
38514;DHT22;24282;48.400;10.808;2023-04-24T10:46:43;12.50;70.50
38514;DHT22;24282;48.400;10.808;2023-04-24T10:49:09;12.50;70.60
38514;DHT22;24282;48.400;10.808;2023-04-24T10:51:51;12.50;70.80
38514;DHT22;24282;48.400;10.808;2023-04-24T10:59:44;13.10;71.20
38514;DHT22;24282;48.400;10.808;2023-04-24T11:02:10;13.40;68.00
38514;DHT22;24282;48.400;10.808;2023-04-24T11:04:36;13.70;69.00
38514;DHT22;24282;48.400;10.808;2023-04-24T11:07:03;13.80;68.20
38514;DHT22;24282;48.400;10.808;2023-04-24T11:09:33;13.80;65.10
38514;DHT22;24282;48.400;10.808;2023-04-24T11:12:11;13.70;64.90
38514;DHT22;24282;48.400;10.808;2023-04-24T11:20:16;13.70;62.90
38514;DHT22;24282;48.400;10.808;2023-04-24T11:22:41;13.90;62.60
38514;DHT22;24282;48.400;10.808;2023-04-24T11:25:08;13.90;61.50
38514;DHT22;24282;48.400;10.808;2023-04-24T11:27:44;14.00;57.80
38514;DHT22;24282;48.400;10.808;2023-04-24T11:30:12;14.30;58.20
38514;DHT22;24282;48.400;10.808;2023-04-24T11:32:42;14.40;58.50
38514;DHT22;24282;48.400;10.808;2023-04-24T11:35:20;14.70;57.60
38514;DHT22;24282;48.400;10.808;2023-04-24T11:37:50;14.90;55.50
38514;DHT22;24282;48.400;10.808;2023-04-24T11:40:18;14.90;54.40
38514;DHT22;24282;48.400;10.808;2023-04-24T11:42:49;14.90;55.70
38514;DHT22;24282;48.400;10.808;2023-04-24T11:45:16;14.80;54.10
38514;DHT22;24282;48.400;10.808;2023-04-24T11:47:43;14.80;54.70
38514;DHT22;24282;48.400;10.808;2023-04-24T11:50:12;14.80;54.00
38514;DHT22;24282;48.400;10.808;2023-04-24T11:52:43;14.80;52.10
38514;DHT22;24282;48.400;10.808;2023-04-24T12:00:22;14.90;52.60
38514;DHT22;24282;48.400;10.808;2023-04-24T12:02:48;14.90;54.30
38514;DHT22;24282;48.400;10.808;2023-04-24T12:05:23;14.70;53.10
38514;DHT22;24282;48.400;10.808;2023-04-24T12:07:49;14.50;52.90
38514;DHT22;24282;48.400;10.808;2023-04-24T12:10:20;14.40;52.30
38514;DHT22;24282;48.400;10.808;2023-04-24T12:12:46;14.30;54.50
38514;DHT22;24282;48.400;10.808;2023-04-24T12:15:12;14.20;53.30
38514;DHT22;24282;48.400;10.808;2023-04-24T12:17:41;14.10;53.80
38514;DHT22;24282;48.400;10.808;2023-04-24T12:20:08;14.00;53.70
38514;DHT22;24282;48.400;10.808;2023-04-24T12:22:50;13.80;53.40
38514;DHT22;24282;48.400;10.808;2023-04-24T12:25:18;13.90;55.30
38514;DHT22;24282;48.400;10.808;2023-04-24T12:27:51;14.10;53.60
38514;DHT22;24282;48.400;10.808;2023-04-24T12:30:17;14.40;52.90
38514;DHT22;24282;48.400;10.808;2023-04-24T12:32:48;14.60;54.50
38514;DHT22;24282;48.400;10.808;2023-04-24T12:35:19;14.90;53.00
38514;DHT22;24282;48.400;10.808;2023-04-24T12:37:46;15.00;52.00
38514;DHT22;24282;48.400;10.808;2023-04-24T12:40:13;14.90;51.30
38514;DHT22;24282;48.400;10.808;2023-04-24T12:42:49;14.80;50.50
38514;DHT22;24282;48.400;10.808;2023-04-24T12:45:16;14.70;51.50
38514;DHT22;24282;48.400;10.808;2023-04-24T12:47:43;14.80;50.00
38514;DHT22;24282;48.400;10.808;2023-04-24T12:50:14;14.90;48.80
38514;DHT22;24282;48.400;10.808;2023-04-24T12:52:40;14.70;47.80
38514;DHT22;24282;48.400;10.808;2023-04-24T12:55:06;14.50;48.70
38514;DHT22;24282;48.400;10.808;2023-04-24T12:57:37;14.40;49.80
38514;DHT22;24282;48.400;10.808;2023-04-24T13:00:05;14.30;49.00
38514;DHT22;24282;48.400;10.808;2023-04-24T13:02:31;14.30;51.20
38514;DHT22;24282;48.400;10.808;2023-04-24T13:04:58;14.40;50.60
38514;DHT22;24282;48.400;10.808;2023-04-24T13:07:24;14.40;49.40
38514;DHT22;24282;48.400;10.808;2023-04-24T13:09:51;14.70;51.90
38514;DHT22;24282;48.400;10.808;2023-04-24T13:12:18;14.80;47.60
38514;DHT22;24282;48.400;10.808;2023-04-24T13:14:44;14.80;46.10
38514;DHT22;24282;48.400;10.808;2023-04-24T13:17:09;14.90;48.00
38514;DHT22;24282;48.400;10.808;2023-04-24T13:19:38;15.10;46.60
38514;DHT22;24282;48.400;10.808;2023-04-24T13:22:04;15.20;46.60
38514;DHT22;24282;48.400;10.808;2023-04-24T13:24:31;15.20;46.40
38514;DHT22;24282;48.400;10.808;2023-04-24T13:26:57;15.00;46.70
38514;DHT22;24282;48.400;10.808;2023-04-24T13:29:23;14.80;48.30
38514;DHT22;24282;48.400;10.808;2023-04-24T13:31:54;14.80;48.70
38514;DHT22;24282;48.400;10.808;2023-04-24T13:34:21;14.80;45.60
38514;DHT22;24282;48.400;10.808;2023-04-24T13:36:47;14.70;46.40
38514;DHT22;24282;48.400;10.808;2023-04-24T13:39:12;14.60;47.50
38514;DHT22;24282;48.400;10.808;2023-04-24T13:41:38;14.40;48.60
38514;DHT22;24282;48.400;10.808;2023-04-24T13:44:05;14.30;49.70
38514;DHT22;24282;48.400;10.808;2023-04-24T13:46:31;14.20;49.60
38514;DHT22;24282;48.400;10.808;2023-04-24T13:48:58;14.10;50.30
38514;DHT22;24282;48.400;10.808;2023-04-24T13:51:27;14.00;50.30
38514;DHT22;24282;48.400;10.808;2023-04-24T13:53:54;14.10;49.50
38514;DHT22;24282;48.400;10.808;2023-04-24T13:56:20;14.00;49.80
38514;DHT22;24282;48.400;10.808;2023-04-24T13:58:47;14.10;48.90
38514;DHT22;24282;48.400;10.808;2023-04-24T14:01:14;14.30;49.50
38514;DHT22;24282;48.400;10.808;2023-04-24T14:03:41;14.50;49.30
38514;DHT22;24282;48.400;10.808;2023-04-24T14:06:08;14.70;49.50
38514;DHT22;24282;48.400;10.808;2023-04-24T14:08:34;14.70;50.00
38514;DHT22;24282;48.400;10.808;2023-04-24T14:11:00;14.70;47.60
38514;DHT22;24282;48.400;10.808;2023-04-24T14:13:26;14.50;49.20
38514;DHT22;24282;48.400;10.808;2023-04-24T14:15:53;14.40;48.30
38514;DHT22;24282;48.400;10.808;2023-04-24T14:18:18;14.40;49.50
38514;DHT22;24282;48.400;10.808;2023-04-24T14:20:44;14.40;49.40
38514;DHT22;24282;48.400;10.808;2023-04-24T14:23:10;14.50;48.90
38514;DHT22;24282;48.400;10.808;2023-04-24T14:25:36;14.60;48.90
38514;DHT22;24282;48.400;10.808;2023-04-24T14:28:02;14.70;48.70
38514;DHT22;24282;48.400;10.808;2023-04-24T14:30:28;14.80;47.90
38514;DHT22;24282;48.400;10.808;2023-04-24T14:32:54;14.90;48.50
38514;DHT22;24282;48.400;10.808;2023-04-24T14:35:19;15.10;48.30
38514;DHT22;24282;48.400;10.808;2023-04-24T14:37:45;15.10;47.70
38514;DHT22;24282;48.400;10.808;2023-04-24T14:40:11;14.90;46.50
38514;DHT22;24282;48.400;10.808;2023-04-24T14:42:37;14.70;47.30
38514;DHT22;24282;48.400;10.808;2023-04-24T14:45:03;14.90;45.70
38514;DHT22;24282;48.400;10.808;2023-04-24T14:47:29;14.80;45.30
38514;DHT22;24282;48.400;10.808;2023-04-24T14:49:55;14.80;45.30
38514;DHT22;24282;48.400;10.808;2023-04-24T14:52:21;14.70;45.70
38514;DHT22;24282;48.400;10.808;2023-04-24T14:54:47;14.70;46.30
38514;DHT22;24282;48.400;10.808;2023-04-24T14:57:12;14.70;47.00
38514;DHT22;24282;48.400;10.808;2023-04-24T14:59:38;14.70;47.60
38514;DHT22;24282;48.400;10.808;2023-04-24T15:02:05;14.60;48.10
38514;DHT22;24282;48.400;10.808;2023-04-24T15:04:31;14.50;48.30
38514;DHT22;24282;48.400;10.808;2023-04-24T15:06:57;14.40;48.50
38514;DHT22;24282;48.400;10.808;2023-04-24T15:09:24;14.30;50.10
38514;DHT22;24282;48.400;10.808;2023-04-24T15:11:51;14.30;48.10
38514;DHT22;24282;48.400;10.808;2023-04-24T15:14:17;14.20;47.70
38514;DHT22;24282;48.400;10.808;2023-04-24T15:16:43;14.10;48.30
38514;DHT22;24282;48.400;10.808;2023-04-24T15:19:09;14.00;46.50
38514;DHT22;24282;48.400;10.808;2023-04-24T15:21:37;13.90;48.30
38514;DHT22;24282;48.400;10.808;2023-04-24T15:24:04;13.80;47.30
38514;DHT22;24282;48.400;10.808;2023-04-24T15:26:30;13.80;47.10
38514;DHT22;24282;48.400;10.808;2023-04-24T15:28:56;13.90;47.70
38514;DHT22;24282;48.400;10.808;2023-04-24T15:31:22;13.90;47.50
38514;DHT22;24282;48.400;10.808;2023-04-24T15:33:51;14.00;46.60
38514;DHT22;24282;48.400;10.808;2023-04-24T15:36:17;14.40;46.40
38514;DHT22;24282;48.400;10.808;2023-04-24T15:38:44;14.60;45.70